createdAt,value
2016-09-02T00:00:35.192Z,0
2016-09-02T00:01:31.690Z,0
2016-09-02T00:02:33.896Z,0
2016-09-02T00:03:31.660Z,0
2016-09-02T00:04:31.684Z,0
2016-09-02T00:05:31.671Z,0
2016-09-02T00:06:31.665Z,0
2016-09-02T00:07:31.659Z,0
2016-09-02T00:08:31.667Z,0
2016-09-02T00:09:31.647Z,0
2016-09-02T00:10:32.357Z,0
2016-09-02T00:11:31.635Z,0
2016-09-02T00:12:31.672Z,0
2016-09-02T00:13:31.655Z,0
2016-09-02T00:14:31.643Z,0
2016-09-02T00:15:31.661Z,0
2016-09-02T00:16:31.626Z,0
2016-09-02T00:17:31.629Z,0
2016-09-02T00:18:31.644Z,0
2016-09-02T00:19:31.646Z,0
2016-09-02T00:20:31.626Z,0
2016-09-02T00:21:31.618Z,0
2016-09-02T00:22:31.614Z,0
2016-09-02T00:23:32.304Z,0
2016-09-02T00:24:31.614Z,0
2016-09-02T00:25:31.606Z,0
2016-09-02T00:26:31.628Z,0
2016-09-02T00:27:31.600Z,0
2016-09-02T00:28:31.632Z,0
2016-09-02T00:29:31.602Z,0
2016-09-02T00:30:32.355Z,0
2016-09-02T00:31:31.600Z,0
2016-09-02T00:32:31.598Z,0
2016-09-02T00:33:31.609Z,0
2016-09-02T00:34:31.608Z,0
2016-09-02T00:35:31.606Z,0
2016-09-02T00:36:31.581Z,0
2016-09-02T00:37:31.596Z,0
2016-09-02T00:38:31.574Z,0
2016-09-02T00:39:31.606Z,0
2016-09-02T00:40:31.564Z,0
2016-09-02T00:41:32.278Z,0
2016-09-02T00:43:33.959Z,0
2016-09-02T00:44:34.069Z,0
2016-09-02T00:45:32.736Z,0
2016-09-02T00:46:33.285Z,0
2016-09-02T00:47:31.573Z,0
2016-09-02T00:48:32.322Z,0
2016-09-02T00:49:31.561Z,0
2016-09-02T00:50:32.265Z,0
2016-09-02T00:51:33.486Z,0
2016-09-02T00:52:36.194Z,0
2016-09-02T00:53:32.675Z,0
2016-09-02T00:54:33.535Z,0
2016-09-02T00:55:32.177Z,0
2016-09-02T00:56:32.061Z,0
2016-09-02T00:57:31.902Z,0
2016-09-02T00:58:31.574Z,0
2016-09-02T00:59:32.426Z,0
2016-09-02T01:00:32.259Z,0
2016-09-02T01:01:31.638Z,0
2016-09-02T01:02:32.831Z,0
2016-09-02T01:03:31.634Z,0
2016-09-02T01:04:32.229Z,0
2016-09-02T01:05:31.899Z,0
2016-09-02T01:06:31.540Z,0
2016-09-02T01:07:31.513Z,0
2016-09-02T01:08:31.524Z,0
2016-09-02T01:09:31.500Z,0
2016-09-02T01:10:31.519Z,0
2016-09-02T01:11:31.525Z,0
2016-09-02T01:12:31.519Z,0
2016-09-02T01:13:31.527Z,0
2016-09-02T01:14:31.529Z,0
2016-09-02T01:15:31.531Z,0
2016-09-02T01:16:32.205Z,0
2016-09-02T01:17:31.498Z,0
2016-09-02T01:18:31.517Z,0
2016-09-02T01:19:31.486Z,0
2016-09-02T01:20:31.515Z,0
2016-09-02T01:21:31.508Z,0
2016-09-02T01:22:31.491Z,0
2016-09-02T01:23:31.496Z,0
2016-09-02T01:24:31.475Z,0
2016-09-02T01:25:31.499Z,0
2016-09-02T01:26:31.487Z,0
2016-09-02T01:27:31.514Z,0
2016-09-02T01:28:31.479Z,0
2016-09-02T01:29:31.681Z,0
2016-09-02T01:30:31.561Z,0
2016-09-02T01:31:31.507Z,0
2016-09-02T01:32:31.481Z,0
2016-09-02T01:33:31.523Z,0
2016-09-02T01:34:31.463Z,0
2016-09-02T01:35:32.171Z,0
2016-09-02T01:36:31.476Z,0
2016-09-02T01:37:31.466Z,0
2016-09-02T01:38:31.471Z,0
2016-09-02T01:39:31.486Z,0
2016-09-02T01:40:31.452Z,0
2016-09-02T01:41:31.475Z,0
2016-09-02T01:42:31.467Z,0
2016-09-02T01:43:31.547Z,0
2016-09-02T01:44:31.446Z,0
2016-09-02T01:45:31.468Z,0
2016-09-02T01:46:31.442Z,0
2016-09-02T01:47:31.472Z,0
2016-09-02T01:48:31.454Z,0
2016-09-02T01:49:31.429Z,0
2016-09-02T01:50:31.459Z,0
2016-09-02T01:51:31.441Z,0
2016-09-02T01:52:31.428Z,0
2016-09-02T01:53:31.437Z,0
2016-09-02T01:54:31.427Z,0
2016-09-02T01:55:31.438Z,0
2016-09-02T01:56:31.446Z,0
2016-09-02T01:57:31.433Z,0
2016-09-02T01:58:31.429Z,0
2016-09-02T01:59:31.418Z,0
2016-09-02T02:01:32.944Z,0
2016-09-02T02:02:33.235Z,0
2016-09-02T02:03:32.116Z,0
2016-09-02T02:04:32.951Z,0
2016-09-02T02:05:31.409Z,0
2016-09-02T02:06:31.420Z,0
2016-09-02T02:07:31.563Z,0
2016-09-02T02:08:32.250Z,0
2016-09-02T02:10:01.227Z,0
2016-09-02T02:10:48.119Z,0
2016-09-02T02:11:33.409Z,0
2016-09-02T02:12:32.506Z,0
2016-09-02T02:13:46.727Z,0
2016-09-02T02:14:32.759Z,0
2016-09-02T02:15:31.499Z,0
2016-09-02T02:16:32.094Z,0
2016-09-02T02:17:46.300Z,0
2016-09-02T02:18:32.679Z,0
2016-09-02T02:19:32.271Z,0
2016-09-02T02:20:31.848Z,0
2016-09-02T02:21:31.392Z,0
2016-09-02T02:22:31.524Z,0
2016-09-02T02:23:31.541Z,0
2016-09-02T02:24:31.376Z,0
2016-09-02T02:25:31.543Z,0
2016-09-02T02:26:31.359Z,0
2016-09-02T02:27:31.348Z,0
2016-09-02T02:28:31.355Z,0
2016-09-02T02:29:31.359Z,0
2016-09-02T02:30:31.342Z,0
2016-09-02T02:31:31.373Z,0
2016-09-02T02:32:31.351Z,0
2016-09-02T02:33:31.339Z,0
2016-09-02T02:34:31.358Z,0
2016-09-02T02:35:32.663Z,0
2016-09-02T02:36:31.362Z,0
2016-09-02T02:37:31.326Z,0
2016-09-02T02:38:31.354Z,0
2016-09-02T02:39:31.325Z,0
2016-09-02T02:40:31.342Z,0
2016-09-02T02:41:32.013Z,0
2016-09-02T02:42:31.313Z,0
2016-09-02T02:43:31.404Z,0
2016-09-02T02:44:31.325Z,0
2016-09-02T02:45:31.346Z,0
2016-09-02T02:46:31.302Z,0
2016-09-02T02:47:31.321Z,0
2016-09-02T02:48:31.313Z,0
2016-09-02T02:49:31.306Z,0
2016-09-02T02:50:31.328Z,0
2016-09-02T02:51:31.309Z,0
2016-09-02T02:52:31.319Z,0
2016-09-02T02:53:32.024Z,0
2016-09-02T02:54:31.292Z,0
2016-09-02T02:55:31.283Z,0
2016-09-02T02:56:31.319Z,0
2016-09-02T02:57:31.284Z,0
2016-09-02T02:58:31.278Z,0
2016-09-02T02:59:31.287Z,0
2016-09-02T03:00:31.279Z,0
2016-09-02T03:01:31.304Z,0
2016-09-02T03:02:31.272Z,0
2016-09-02T03:03:31.291Z,0
2016-09-02T03:04:31.260Z,0
2016-09-02T03:05:31.278Z,0
2016-09-02T03:06:31.259Z,0
2016-09-02T03:07:31.250Z,0
2016-09-02T03:08:31.273Z,0
2016-09-02T03:09:31.271Z,0
2016-09-02T03:10:31.255Z,0
2016-09-02T03:11:31.256Z,0
2016-09-02T03:12:31.249Z,0
2016-09-02T03:13:31.251Z,0
2016-09-02T03:14:31.255Z,0
2016-09-02T03:15:31.231Z,0
2016-09-02T03:16:31.271Z,0
2016-09-02T03:17:31.223Z,0
2016-09-02T03:18:34.476Z,0
2016-09-02T03:20:34.183Z,0
2016-09-02T03:21:33.372Z,0
2016-09-02T03:22:32.369Z,0
2016-09-02T03:23:32.474Z,0
2016-09-02T03:24:31.207Z,0
2016-09-02T03:25:31.618Z,0
2016-09-02T03:26:31.821Z,0
2016-09-02T03:27:47.424Z,0
2016-09-02T03:28:33.106Z,0
2016-09-02T03:29:48.615Z,0
2016-09-02T03:30:31.554Z,0
2016-09-02T03:31:32.953Z,0
2016-09-02T03:32:32.524Z,0
2016-09-02T03:33:31.487Z,0
2016-09-02T03:34:31.168Z,0
2016-09-02T03:35:31.806Z,0
2016-09-02T03:36:32.649Z,0
2016-09-02T03:38:01.098Z,0
2016-09-02T03:38:31.544Z,0
2016-09-02T03:39:32.182Z,0
2016-09-02T03:40:31.153Z,0
2016-09-02T03:41:31.143Z,0
2016-09-02T03:42:31.173Z,0
2016-09-02T03:43:31.234Z,0
2016-09-02T03:44:31.159Z,0
2016-09-02T03:45:31.145Z,0
2016-09-02T03:46:31.132Z,0
2016-09-02T03:47:31.125Z,0
2016-09-02T03:48:31.157Z,0
2016-09-02T03:49:31.139Z,0
2016-09-02T03:50:31.146Z,0
2016-09-02T03:51:31.150Z,0
2016-09-02T03:52:31.118Z,0
2016-09-02T03:53:31.143Z,0
2016-09-02T03:54:31.103Z,0
2016-09-02T03:55:31.116Z,0
2016-09-02T03:56:31.110Z,0
2016-09-02T03:57:31.092Z,0
2016-09-02T03:58:31.083Z,0
2016-09-02T03:59:31.097Z,0
2016-09-02T04:00:31.128Z,0
2016-09-02T04:01:31.076Z,0
2016-09-02T04:02:31.103Z,0
2016-09-02T04:03:31.089Z,0
2016-09-02T04:04:31.080Z,0
2016-09-02T04:05:31.074Z,0
2016-09-02T04:06:31.060Z,0
2016-09-02T04:07:31.081Z,0
2016-09-02T04:08:31.062Z,0
2016-09-02T04:09:31.083Z,5
2016-09-02T04:10:31.070Z,5
2016-09-02T04:11:31.061Z,5
2016-09-02T04:12:31.038Z,5
2016-09-02T04:13:31.060Z,5
2016-09-02T04:14:31.040Z,5
2016-09-02T04:15:31.037Z,5
2016-09-02T04:16:31.048Z,10
2016-09-02T04:17:31.016Z,10
2016-09-02T04:18:31.051Z,10
2016-09-02T04:19:31.052Z,10
2016-09-02T04:20:31.020Z,10
2016-09-02T04:21:31.035Z,15
2016-09-02T04:22:31.006Z,15
2016-09-02T04:23:31.023Z,15
2016-09-02T04:24:31.004Z,15
2016-09-02T04:25:30.993Z,20
2016-09-02T04:26:30.994Z,20
2016-09-02T04:27:31.014Z,20
2016-09-02T04:28:30.982Z,25
2016-09-02T04:29:30.977Z,25
2016-09-02T04:30:30.981Z,25
2016-09-02T04:31:30.983Z,30
2016-09-02T04:32:30.978Z,30
2016-09-02T04:33:30.965Z,35
2016-09-02T04:34:30.957Z,35
2016-09-02T04:35:30.966Z,35
2016-09-02T04:36:33.991Z,40
2016-09-02T04:37:33.271Z,40
2016-09-02T04:38:32.766Z,45
2016-09-02T04:39:32.340Z,45
2016-09-02T04:40:31.549Z,45
2016-09-02T04:41:31.921Z,50
2016-09-02T04:42:30.943Z,55
2016-09-02T04:43:31.499Z,60
2016-09-02T04:44:46.890Z,65
2016-09-02T04:46:48.929Z,70
2016-09-02T04:47:34.468Z,75
2016-09-02T04:48:34.015Z,80
2016-09-02T04:49:32.470Z,80
2016-09-02T04:50:30.934Z,80
2016-09-02T04:51:31.228Z,85
2016-09-02T04:52:30.971Z,95
2016-09-02T04:53:32.052Z,95
2016-09-02T04:54:31.311Z,95
2016-09-02T04:55:31.017Z,105
2016-09-02T04:56:45.792Z,110
2016-09-02T04:57:31.936Z,115
2016-09-02T04:58:30.871Z,110
2016-09-02T04:59:31.120Z,110
2016-09-02T05:00:31.024Z,115
2016-09-02T05:01:30.877Z,130
2016-09-02T05:02:30.880Z,135
2016-09-02T05:03:30.869Z,140
2016-09-02T05:04:30.858Z,135
2016-09-02T05:05:30.986Z,145
2016-09-02T05:06:30.873Z,160
2016-09-02T05:07:30.849Z,165
2016-09-02T05:08:30.855Z,170
2016-09-02T05:09:30.881Z,175
2016-09-02T05:10:30.847Z,180
2016-09-02T05:11:30.869Z,180
2016-09-02T05:12:30.870Z,190
2016-09-02T05:13:30.887Z,195
2016-09-02T05:14:31.538Z,205
2016-09-02T05:15:30.855Z,210
2016-09-02T05:16:30.833Z,215
2016-09-02T05:17:30.854Z,210
2016-09-02T05:18:30.829Z,215
2016-09-02T05:19:30.844Z,225
2016-09-02T05:20:30.845Z,230
2016-09-02T05:21:30.846Z,240
2016-09-02T05:22:30.846Z,245
2016-09-02T05:23:30.840Z,250
2016-09-02T05:24:30.848Z,250
2016-09-02T05:25:30.834Z,260
2016-09-02T05:26:30.825Z,260
2016-09-02T05:27:30.835Z,275
2016-09-02T05:28:30.849Z,275
2016-09-02T05:29:30.834Z,290
2016-09-02T05:30:30.880Z,305
2016-09-02T05:31:30.835Z,315
2016-09-02T05:32:30.892Z,320
2016-09-02T05:33:30.848Z,325
2016-09-02T05:34:30.868Z,330
2016-09-02T05:35:32.534Z,345
2016-09-02T05:36:30.863Z,350
2016-09-02T05:37:30.853Z,355
2016-09-02T05:38:30.884Z,365
2016-09-02T05:39:30.885Z,380
2016-09-02T05:40:30.937Z,380
2016-09-02T05:41:30.877Z,390
2016-09-02T05:42:30.882Z,400
2016-09-02T05:43:30.974Z,405
2016-09-02T05:44:30.886Z,415
2016-09-02T05:45:30.898Z,425
2016-09-02T05:46:30.893Z,435
2016-09-02T05:47:30.910Z,445
2016-09-02T05:48:30.906Z,450
2016-09-02T05:49:30.949Z,455
2016-09-02T05:50:30.958Z,460
2016-09-02T05:51:30.930Z,460
2016-09-02T05:52:30.926Z,470
2016-09-02T05:53:31.632Z,475
2016-09-02T05:54:32.463Z,485
2016-09-02T05:55:34.375Z,495
2016-09-02T05:56:32.169Z,500
2016-09-02T05:57:32.014Z,505
2016-09-02T05:58:33.821Z,500
2016-09-02T05:59:32.302Z,515
2016-09-02T06:00:30.990Z,495
2016-09-02T06:01:30.988Z,500
2016-09-02T06:02:45.912Z,510
2016-09-02T06:03:32.153Z,525
2016-09-02T06:04:33.456Z,550
2016-09-02T06:05:34.847Z,555
2016-09-02T06:06:34.697Z,570
2016-09-02T06:07:32.250Z,585
2016-09-02T06:08:32.712Z,605
2016-09-02T06:09:32.724Z,580
2016-09-02T06:10:31.081Z,600
2016-09-02T06:11:31.815Z,595
2016-09-02T06:12:32.187Z,610
2016-09-02T06:13:31.222Z,620
2016-09-02T06:14:31.767Z,630
2016-09-02T06:15:32.349Z,635
2016-09-02T06:16:31.715Z,635
2016-09-02T06:17:32.128Z,655
2016-09-02T06:18:31.821Z,660
2016-09-02T06:19:32.671Z,670
2016-09-02T06:20:31.158Z,680
2016-09-02T06:21:31.858Z,690
2016-09-02T06:22:31.155Z,615
2016-09-02T06:23:31.183Z,625
2016-09-02T06:24:31.182Z,635
2016-09-02T06:25:31.201Z,650
2016-09-02T06:26:31.200Z,650
2016-09-02T06:27:31.218Z,665
2016-09-02T06:30:37.024Z,685
2016-09-02T06:31:32.777Z,695
2016-09-02T06:32:31.263Z,705
2016-09-02T06:33:32.079Z,720
2016-09-02T06:34:31.277Z,725
2016-09-02T06:35:32.578Z,730
2016-09-02T06:36:31.296Z,755
2016-09-02T06:37:31.344Z,735
2016-09-02T06:38:31.323Z,740
2016-09-02T06:39:31.341Z,755
2016-09-02T06:40:31.337Z,765
2016-09-02T06:41:31.374Z,790
2016-09-02T06:42:31.356Z,820
2016-09-02T06:43:31.441Z,790
2016-09-02T06:44:31.405Z,770
2016-09-02T06:45:31.382Z,560
2016-09-02T06:46:31.403Z,680
2016-09-02T06:47:31.410Z,765
2016-09-02T06:48:31.414Z,740
2016-09-02T06:49:31.430Z,560
2016-09-02T06:50:31.471Z,670
2016-09-02T06:51:31.458Z,705
2016-09-02T06:52:31.473Z,710
2016-09-02T06:53:31.467Z,705
2016-09-02T06:54:31.510Z,715
2016-09-02T06:55:31.491Z,710
2016-09-02T06:56:31.507Z,710
2016-09-02T06:57:31.525Z,605
2016-09-02T06:58:31.525Z,615
2016-09-02T06:59:31.589Z,675
2016-09-02T07:00:31.573Z,710
2016-09-02T07:01:31.557Z,740
2016-09-02T07:02:31.583Z,725
2016-09-02T07:03:31.583Z,725
2016-09-02T07:04:31.611Z,755
2016-09-02T07:05:31.596Z,720
2016-09-02T07:06:31.642Z,705
2016-09-02T07:07:31.619Z,695
2016-09-02T07:08:31.654Z,695
2016-09-02T07:09:31.633Z,655
2016-09-02T07:10:31.655Z,615
2016-09-02T07:11:31.658Z,685
2016-09-02T07:12:31.667Z,670
2016-09-02T07:13:34.255Z,680
2016-09-02T07:14:36.186Z,670
2016-09-02T07:15:33.058Z,730
2016-09-02T07:16:33.066Z,710
2016-09-02T07:17:31.919Z,715
2016-09-02T07:18:32.487Z,750
2016-09-02T07:19:31.747Z,790
2016-09-02T07:20:31.894Z,765
2016-09-02T07:21:32.824Z,795
2016-09-02T07:22:33.826Z,830
2016-09-02T07:23:35.772Z,890
2016-09-02T07:24:32.876Z,925
2016-09-02T07:25:48.130Z,1010
2016-09-02T07:26:32.307Z,1040
2016-09-02T07:27:32.811Z,1115
2016-09-02T07:28:31.823Z,1135
2016-09-02T07:29:31.834Z,1175
2016-09-02T07:30:31.923Z,1180
2016-09-02T07:31:33.280Z,1185
2016-09-02T07:32:47.340Z,1130
2016-09-02T07:33:31.977Z,1005
2016-09-02T07:34:32.306Z,945
2016-09-02T07:35:33.082Z,875
2016-09-02T07:36:32.317Z,770
2016-09-02T07:37:32.063Z,815
2016-09-02T07:38:31.923Z,940
2016-09-02T07:39:31.940Z,1080
2016-09-02T07:40:32.327Z,1020
2016-09-02T07:41:31.954Z,980
2016-09-02T07:42:31.992Z,1135
2016-09-02T07:43:31.980Z,1195
2016-09-02T07:44:32.002Z,1095
2016-09-02T07:45:32.697Z,1070
2016-09-02T07:46:32.013Z,1230
2016-09-02T07:47:32.046Z,1145
2016-09-02T07:48:32.013Z,1170
2016-09-02T07:49:32.059Z,1050
2016-09-02T07:50:32.048Z,1135
2016-09-02T07:51:32.070Z,1165
2016-09-02T07:52:32.101Z,1215
2016-09-02T07:53:32.084Z,1220
2016-09-02T07:54:32.097Z,1230
2016-09-02T07:55:32.088Z,1170
2016-09-02T07:56:32.119Z,1195
2016-09-02T07:57:32.130Z,1145
2016-09-02T07:58:32.144Z,1045
2016-09-02T07:59:32.126Z,1190
2016-09-02T08:00:32.162Z,1290
2016-09-02T08:01:32.850Z,1335
2016-09-02T08:02:32.175Z,1315
2016-09-02T08:03:32.170Z,1270
2016-09-02T08:04:32.184Z,1420
2016-09-02T08:05:32.191Z,1445
2016-09-02T08:06:32.214Z,1210
2016-09-02T08:07:32.224Z,1340
2016-09-02T08:08:32.225Z,1080
2016-09-02T08:09:32.263Z,1150
2016-09-02T08:10:32.514Z,1385
2016-09-02T08:11:32.262Z,1410
2016-09-02T08:12:32.283Z,1250
2016-09-02T08:13:32.296Z,1215
2016-09-02T08:14:32.317Z,1260
2016-09-02T08:15:32.291Z,1260
2016-09-02T08:16:32.312Z,1240
2016-09-02T08:17:33.712Z,1175
2016-09-02T08:18:32.330Z,1155
2016-09-02T08:19:32.354Z,885
2016-09-02T08:20:32.358Z,560
2016-09-02T08:21:32.380Z,470
2016-09-02T08:22:32.385Z,455
2016-09-02T08:23:32.371Z,450
2016-09-02T08:24:32.391Z,460
2016-09-02T08:25:32.401Z,455
2016-09-02T08:26:32.406Z,460
2016-09-02T08:27:32.441Z,455
2016-09-02T08:28:32.423Z,465
2016-09-02T08:29:32.449Z,470
2016-09-02T08:30:32.442Z,475
2016-09-02T08:31:34.824Z,465
2016-09-02T08:32:33.803Z,470
2016-09-02T08:33:34.449Z,460
2016-09-02T08:34:34.887Z,455
2016-09-02T08:35:33.974Z,450
2016-09-02T08:36:32.507Z,440
2016-09-02T08:37:33.388Z,435
2016-09-02T08:38:32.525Z,420
2016-09-02T08:39:33.407Z,410
2016-09-02T08:40:34.799Z,400
2016-09-02T08:41:37.286Z,385
2016-09-02T08:42:34.560Z,370
2016-09-02T08:43:35.614Z,355
2016-09-02T08:44:34.343Z,335
2016-09-02T08:45:32.821Z,320
2016-09-02T08:46:33.346Z,300
2016-09-02T08:47:32.583Z,305
2016-09-02T08:48:33.632Z,305
2016-09-02T08:49:33.264Z,305
2016-09-02T08:50:33.410Z,300
2016-09-02T08:52:32.666Z,285
2016-09-02T08:53:32.607Z,275
2016-09-02T08:54:33.084Z,280
2016-09-02T08:55:32.619Z,285
2016-09-02T08:56:32.637Z,280
2016-09-02T08:57:32.660Z,270
2016-09-02T08:58:32.671Z,260
2016-09-02T08:59:32.641Z,255
2016-09-02T09:00:32.663Z,255
2016-09-02T09:01:32.644Z,265
2016-09-02T09:02:32.675Z,260
2016-09-02T09:03:32.662Z,260
2016-09-02T09:04:32.675Z,255
2016-09-02T09:05:32.714Z,250
2016-09-02T09:06:32.696Z,245
2016-09-02T09:07:32.692Z,245
2016-09-02T09:08:32.705Z,240
2016-09-02T09:09:32.696Z,240
2016-09-02T09:10:32.696Z,235
2016-09-02T09:11:32.701Z,235
2016-09-02T09:12:32.733Z,235
2016-09-02T09:13:32.719Z,235
2016-09-02T09:14:33.424Z,235
2016-09-02T09:15:32.735Z,230
2016-09-02T09:16:34.234Z,230
2016-09-02T09:17:32.747Z,230
2016-09-02T09:18:33.433Z,225
2016-09-02T09:19:32.734Z,225
2016-09-02T09:20:32.764Z,225
2016-09-02T09:21:32.741Z,225
2016-09-02T09:22:32.739Z,225
2016-09-02T09:23:33.452Z,225
2016-09-02T09:24:35.501Z,225
2016-09-02T09:27:35.285Z,220
2016-09-02T09:28:37.327Z,220
2016-09-02T09:31:32.771Z,220
2016-09-02T09:32:32.794Z,220
2016-09-02T09:33:33.475Z,220
2016-09-02T09:34:32.792Z,220
2016-09-02T09:35:35.588Z,225
2016-09-02T09:36:32.835Z,240
2016-09-02T09:37:32.810Z,250
2016-09-02T09:38:32.795Z,250
2016-09-02T09:39:32.808Z,245
2016-09-02T09:40:32.795Z,235
2016-09-02T09:41:44.472Z,220
2016-09-02T09:42:34.331Z,235
2016-09-02T09:43:32.821Z,240
2016-09-02T09:44:32.844Z,240
2016-09-02T09:45:32.802Z,225
2016-09-02T09:46:32.817Z,225
2016-09-02T09:47:32.818Z,220
2016-09-02T09:48:32.831Z,225
2016-09-02T09:49:36.088Z,235
2016-09-02T09:50:35.077Z,235
2016-09-02T09:51:34.102Z,235
2016-09-02T09:53:33.415Z,225
2016-09-02T09:54:32.898Z,220
2016-09-02T09:55:33.733Z,220
2016-09-02T09:56:32.854Z,220
2016-09-02T09:58:36.066Z,215
2016-09-02T09:59:35.290Z,220
2016-09-02T10:00:34.028Z,215
2016-09-02T10:01:33.983Z,235
2016-09-02T10:02:33.703Z,245
2016-09-02T10:03:33.049Z,235
2016-09-02T10:04:33.607Z,230
2016-09-02T10:05:32.889Z,225
2016-09-02T10:06:34.270Z,235
2016-09-02T10:07:34.170Z,235
2016-09-02T10:08:34.364Z,225
2016-09-02T10:09:32.972Z,220
2016-09-02T10:10:33.094Z,215
2016-09-02T10:11:32.902Z,210
2016-09-02T10:12:33.442Z,210
2016-09-02T10:13:32.896Z,210
2016-09-02T10:14:32.910Z,210
2016-09-02T10:15:33.257Z,210
2016-09-02T10:16:32.907Z,210
2016-09-02T10:17:32.903Z,210
2016-09-02T10:18:32.884Z,210
2016-09-02T10:19:32.902Z,210
2016-09-02T10:20:33.693Z,215
2016-09-02T10:21:32.904Z,215
2016-09-02T10:22:32.923Z,220
2016-09-02T10:23:32.910Z,220
2016-09-02T10:24:32.914Z,230
2016-09-02T10:25:32.922Z,245
2016-09-02T10:26:32.941Z,240
2016-09-02T10:27:32.918Z,240
2016-09-02T10:28:32.918Z,240
2016-09-02T10:29:32.916Z,230
2016-09-02T10:30:32.946Z,225
2016-09-02T10:31:32.944Z,225
2016-09-02T10:32:32.974Z,220
2016-09-02T10:33:32.955Z,220
2016-09-02T10:34:32.953Z,215
2016-09-02T10:35:32.952Z,215
2016-09-02T10:36:32.965Z,210
2016-09-02T10:37:32.941Z,215
2016-09-02T10:38:32.985Z,215
2016-09-02T10:39:32.960Z,220
2016-09-02T10:40:32.972Z,220
2016-09-02T10:41:32.972Z,225
2016-09-02T10:42:32.982Z,225
2016-09-02T10:43:33.721Z,230
2016-09-02T10:44:32.958Z,225
2016-09-02T10:45:32.993Z,215
2016-09-02T10:46:32.974Z,215
2016-09-02T10:47:33.685Z,230
2016-09-02T10:48:32.980Z,235
2016-09-02T10:49:33.005Z,265
2016-09-02T10:50:33.163Z,270
2016-09-02T10:51:33.673Z,275
2016-09-02T10:52:33.012Z,270
2016-09-02T10:53:33.057Z,290
2016-09-02T10:54:33.007Z,305
2016-09-02T10:55:32.998Z,300
2016-09-02T10:56:33.010Z,305
2016-09-02T10:57:32.999Z,295
2016-09-02T10:58:32.993Z,295
2016-09-02T10:59:33.795Z,300
2016-09-02T11:00:33.550Z,305
2016-09-02T11:01:33.036Z,325
2016-09-02T11:02:33.742Z,335
2016-09-02T11:04:33.035Z,365
2016-09-02T11:05:33.038Z,365
2016-09-02T11:06:33.027Z,350
2016-09-02T11:07:36.186Z,345
2016-09-02T11:08:35.958Z,340
2016-09-02T11:09:35.241Z,340
2016-09-02T11:10:33.198Z,325
2016-09-02T11:11:33.103Z,330
2016-09-02T11:12:33.077Z,330
2016-09-02T11:13:33.452Z,335
2016-09-02T11:14:33.089Z,325
2016-09-02T11:15:49.143Z,320
2016-09-02T11:18:00.188Z,310
2016-09-02T11:18:35.206Z,310
2016-09-02T11:19:43.481Z,300
2016-09-02T11:20:34.069Z,300
2016-09-02T11:21:33.072Z,320
2016-09-02T11:22:33.653Z,350
2016-09-02T11:23:33.098Z,345
2016-09-02T11:24:34.352Z,330
2016-09-02T11:25:34.558Z,340
2016-09-02T11:26:33.406Z,350
2016-09-02T11:27:48.021Z,375
2016-09-02T11:28:48.024Z,375
2016-09-02T11:29:33.569Z,395
2016-09-02T11:30:33.285Z,410
2016-09-02T11:31:33.129Z,430
2016-09-02T11:32:33.168Z,435
2016-09-02T11:34:42.281Z,460
2016-09-02T11:35:33.122Z,470
2016-09-02T11:36:33.132Z,470
2016-09-02T11:37:33.132Z,465
2016-09-02T11:38:33.238Z,465
2016-09-02T11:39:33.155Z,470
2016-09-02T11:40:33.872Z,475
2016-09-02T11:41:33.157Z,480
2016-09-02T11:42:33.173Z,480
2016-09-02T11:43:33.163Z,485
2016-09-02T11:44:33.194Z,495
2016-09-02T11:45:33.452Z,500
2016-09-02T11:46:33.181Z,495
2016-09-02T11:47:33.212Z,495
2016-09-02T11:48:33.210Z,485
2016-09-02T11:49:33.196Z,485
2016-09-02T11:50:33.199Z,485
2016-09-02T11:51:33.201Z,485
2016-09-02T11:52:33.234Z,490
2016-09-02T11:53:33.238Z,490
2016-09-02T11:54:33.258Z,495
2016-09-02T11:55:33.222Z,500
2016-09-02T11:56:33.238Z,500
2016-09-02T11:57:33.230Z,500
2016-09-02T11:58:33.251Z,500
2016-09-02T11:59:33.253Z,500
2016-09-02T12:00:33.281Z,510
2016-09-02T12:01:33.267Z,515
2016-09-02T12:02:33.268Z,525
2016-09-02T12:03:33.270Z,535
2016-09-02T12:04:33.267Z,540
2016-09-02T12:05:33.283Z,540
2016-09-02T12:06:33.300Z,540
2016-09-02T12:07:33.305Z,535
2016-09-02T12:08:33.286Z,525
2016-09-02T12:09:33.306Z,530
2016-09-02T12:10:35.225Z,540
2016-09-02T12:11:39.569Z,550
2016-09-02T12:13:00.663Z,550
2016-09-02T12:13:33.320Z,545
2016-09-02T12:14:33.342Z,530
2016-09-02T12:15:33.336Z,510
2016-09-02T12:16:33.362Z,500
2016-09-02T12:17:33.364Z,495
2016-09-02T12:18:33.363Z,485
2016-09-02T12:19:33.371Z,490
2016-09-02T12:20:33.356Z,485
2016-09-02T12:21:39.441Z,480
2016-09-02T12:22:33.384Z,465
2016-09-02T12:23:42.461Z,450
2016-09-02T12:24:33.410Z,445
2016-09-02T12:25:35.146Z,435
2016-09-02T12:26:34.852Z,425
2016-09-02T12:27:36.551Z,420
2016-09-02T12:28:34.636Z,410
2016-09-02T12:29:41.126Z,420
2016-09-02T12:35:36.831Z,465
2016-09-02T12:36:55.024Z,480
2016-09-02T12:37:47.711Z,485
2016-09-02T12:38:38.427Z,495
2016-09-02T12:39:34.450Z,505
2016-09-02T12:40:39.560Z,515
2016-09-02T12:41:34.367Z,525
2016-09-02T12:42:51.174Z,535
2016-09-02T12:43:34.313Z,535
2016-09-02T12:45:34.836Z,530
2016-09-02T12:46:33.954Z,530
2016-09-02T12:47:34.223Z,520
2016-09-02T12:48:33.533Z,520
2016-09-02T12:49:33.527Z,515
2016-09-02T12:50:33.544Z,515
2016-09-02T12:51:35.056Z,520
2016-09-02T12:52:33.563Z,515
2016-09-02T12:53:49.680Z,500
2016-09-02T12:54:33.591Z,490
2016-09-02T12:55:33.561Z,485
2016-09-02T12:56:33.589Z,470
2016-09-02T12:57:33.585Z,450
2016-09-02T12:58:33.573Z,435
2016-09-02T12:59:33.589Z,415
2016-09-02T13:00:33.633Z,395
2016-09-02T13:01:33.612Z,375
2016-09-02T13:03:43.518Z,335
2016-09-02T13:04:33.631Z,320
2016-09-02T13:05:33.641Z,300
2016-09-02T13:06:33.633Z,290
2016-09-02T13:07:33.646Z,290
2016-09-02T13:09:36.371Z,265
2016-09-02T13:10:34.063Z,255
2016-09-02T13:11:33.646Z,245
2016-09-02T13:12:33.686Z,245
2016-09-02T13:13:33.671Z,230
2016-09-02T13:14:34.400Z,225
2016-09-02T13:15:33.679Z,220
2016-09-02T13:16:33.684Z,225
2016-09-02T13:17:33.698Z,265
2016-09-02T13:18:33.713Z,275
2016-09-02T13:19:33.706Z,280
2016-09-02T13:20:33.699Z,265
2016-09-02T13:21:33.720Z,260
2016-09-02T13:22:33.720Z,255
2016-09-02T13:23:33.746Z,250
2016-09-02T13:24:33.743Z,250
2016-09-02T13:25:33.759Z,250
2016-09-02T13:26:33.748Z,250
2016-09-02T13:27:33.783Z,255
2016-09-02T13:28:33.792Z,260
2016-09-02T13:29:33.779Z,260
2016-09-02T13:30:33.763Z,270
2016-09-02T13:31:33.790Z,280
2016-09-02T13:32:34.475Z,290
2016-09-02T13:33:33.795Z,305
2016-09-02T13:34:33.778Z,325
2016-09-02T13:35:34.806Z,325
2016-09-02T13:36:33.792Z,345
2016-09-02T13:37:33.792Z,350
2016-09-02T13:38:33.801Z,365
2016-09-02T13:39:33.830Z,370
2016-09-02T13:40:33.810Z,380
2016-09-02T13:41:33.836Z,385
2016-09-02T13:42:33.822Z,390
2016-09-02T13:43:37.300Z,390
2016-09-02T13:44:35.682Z,390
2016-09-02T13:45:37.746Z,390
2016-09-02T13:46:36.228Z,385
2016-09-02T13:47:34.553Z,385
2016-09-02T13:48:34.541Z,380
2016-09-02T13:49:33.851Z,365
2016-09-02T13:50:34.150Z,355
2016-09-02T13:51:35.179Z,355
2016-09-02T13:52:36.187Z,360
2016-09-02T13:53:36.972Z,345
2016-09-02T13:54:37.334Z,325
2016-09-02T13:55:36.063Z,315
2016-09-02T13:56:33.967Z,305
2016-09-02T13:57:34.764Z,305
2016-09-02T13:58:33.900Z,295
2016-09-02T13:59:33.917Z,285
2016-09-02T14:00:36.486Z,280
2016-09-02T14:01:33.922Z,280
2016-09-02T14:02:34.780Z,275
2016-09-02T14:03:34.053Z,260
2016-09-02T14:04:34.768Z,255
2016-09-02T14:05:34.189Z,240
2016-09-02T14:06:34.612Z,230
2016-09-02T14:07:34.651Z,225
2016-09-02T14:08:33.969Z,205
2016-09-02T14:09:34.658Z,200
2016-09-02T14:10:34.699Z,195
2016-09-02T14:11:33.984Z,190
2016-09-02T14:12:34.006Z,180
2016-09-02T14:13:33.991Z,185
2016-09-02T14:14:34.009Z,180
2016-09-02T14:15:34.015Z,175
2016-09-02T14:16:34.047Z,180
2016-09-02T14:17:34.005Z,195
2016-09-02T14:18:34.015Z,205
2016-09-02T14:19:34.025Z,210
2016-09-02T14:20:34.028Z,205
2016-09-02T14:21:34.034Z,205
2016-09-02T14:22:34.063Z,205
2016-09-02T14:23:34.760Z,210
2016-09-02T14:24:34.053Z,210
2016-09-02T14:25:34.091Z,210
2016-09-02T14:26:34.746Z,210
2016-09-02T14:27:34.103Z,210